sensor_id;sensor_type;location;lat;lon;timestamp;temperature;humidity
20750;DHT22;10535;50.664;4.564;2023-07-09T00:00:36;21.90;99.90
20750;DHT22;10535;50.664;4.564;2023-07-09T00:03:02;21.90;99.90
20750;DHT22;10535;50.664;4.564;2023-07-09T00:05:28;21.90;99.90
20750;DHT22;10535;50.664;4.564;2023-07-09T00:07:53;21.90;99.90
20750;DHT22;10535;50.664;4.564;2023-07-09T00:10:20;21.90;99.90
20750;DHT22;10535;50.664;4.564;2023-07-09T00:12:47;21.80;99.90
20750;DHT22;10535;50.664;4.564;2023-07-09T00:15:14;21.80;99.90
20750;DHT22;10535;50.664;4.564;2023-07-09T00:17:43;21.80;99.90
20750;DHT22;10535;50.664;4.564;2023-07-09T00:20:15;21.70;99.90
20750;DHT22;10535;50.664;4.564;2023-07-09T00:22:42;21.70;99.90
20750;DHT22;10535;50.664;4.564;2023-07-09T00:25:18;21.70;99.90
20750;DHT22;10535;50.664;4.564;2023-07-09T00:27:43;21.60;99.90
20750;DHT22;10535;50.664;4.564;2023-07-09T00:30:19;21.60;99.90
20750;DHT22;10535;50.664;4.564;2023-07-09T00:32:44;21.60;99.90
20750;DHT22;10535;50.664;4.564;2023-07-09T00:35:12;21.60;99.90
20750;DHT22;10535;50.664;4.564;2023-07-09T00:37:42;21.60;99.90
20750;DHT22;10535;50.664;4.564;2023-07-09T00:40:26;21.50;99.90
20750;DHT22;10535;50.664;4.564;2023-07-09T00:42:54;21.50;99.90
20750;DHT22;10535;50.664;4.564;2023-07-09T00:45:25;21.50;99.90
20750;DHT22;10535;50.664;4.564;2023-07-09T00:48:00;21.60;99.90
20750;DHT22;10535;50.664;4.564;2023-07-09T00:53:04;21.50;99.90
20750;DHT22;10535;50.664;4.564;2023-07-09T00:55:37;21.60;99.90
20750;DHT22;10535;50.664;4.564;2023-07-09T00:58:06;21.50;99.90
20750;DHT22;10535;50.664;4.564;2023-07-09T01:00:40;21.50;99.90
20750;DHT22;10535;50.664;4.564;2023-07-09T01:05:47;21.50;99.90
20750;DHT22;10535;50.664;4.564;2023-07-09T01:08:17;21.60;99.90
20750;DHT22;10535;50.664;4.564;2023-07-09T01:10:43;21.60;99.90
20750;DHT22;10535;50.664;4.564;2023-07-09T01:13:09;21.60;99.90
20750;DHT22;10535;50.664;4.564;2023-07-09T01:15:35;21.70;99.90
20750;DHT22;10535;50.664;4.564;2023-07-09T01:18:04;21.80;99.90
20750;DHT22;10535;50.664;4.564;2023-07-09T01:20:30;21.70;99.90
20750;DHT22;10535;50.664;4.564;2023-07-09T01:22:56;21.70;99.90
20750;DHT22;10535;50.664;4.564;2023-07-09T01:25:23;21.60;99.90
20750;DHT22;10535;50.664;4.564;2023-07-09T01:27:49;21.50;99.90
20750;DHT22;10535;50.664;4.564;2023-07-09T01:30:21;21.50;99.90
20750;DHT22;10535;50.664;4.564;2023-07-09T01:32:49;21.60;99.90
20750;DHT22;10535;50.664;4.564;2023-07-09T01:35:17;21.50;99.90
20750;DHT22;10535;50.664;4.564;2023-07-09T01:37:44;21.50;99.90
20750;DHT22;10535;50.664;4.564;2023-07-09T01:40:13;21.40;99.90
20750;DHT22;10535;50.664;4.564;2023-07-09T01:42:40;21.50;99.90
20750;DHT22;10535;50.664;4.564;2023-07-09T01:45:07;21.50;99.90
20750;DHT22;10535;50.664;4.564;2023-07-09T01:47:36;21.50;99.90
20750;DHT22;10535;50.664;4.564;2023-07-09T01:50:01;21.40;99.90
20750;DHT22;10535;50.664;4.564;2023-07-09T01:52:30;21.30;99.90
20750;DHT22;10535;50.664;4.564;2023-07-09T01:54:57;21.40;99.90
20750;DHT22;10535;50.664;4.564;2023-07-09T01:57:24;21.40;99.90
20750;DHT22;10535;50.664;4.564;2023-07-09T01:59:52;21.40;99.90
20750;DHT22;10535;50.664;4.564;2023-07-09T02:02:22;21.40;99.90
20750;DHT22;10535;50.664;4.564;2023-07-09T02:04:52;21.40;99.90
20750;DHT22;10535;50.664;4.564;2023-07-09T02:07:19;21.40;99.90
20750;DHT22;10535;50.664;4.564;2023-07-09T02:09:45;21.40;99.90
20750;DHT22;10535;50.664;4.564;2023-07-09T02:12:12;21.30;99.90
20750;DHT22;10535;50.664;4.564;2023-07-09T02:14:38;21.30;99.90
20750;DHT22;10535;50.664;4.564;2023-07-09T02:17:04;21.30;99.90
20750;DHT22;10535;50.664;4.564;2023-07-09T02:19:31;21.30;99.90
20750;DHT22;10535;50.664;4.564;2023-07-09T02:21:57;21.30;99.90
20750;DHT22;10535;50.664;4.564;2023-07-09T02:24:23;21.30;99.90
20750;DHT22;10535;50.664;4.564;2023-07-09T02:26:56;21.20;99.90
20750;DHT22;10535;50.664;4.564;2023-07-09T02:29:23;21.20;99.90
20750;DHT22;10535;50.664;4.564;2023-07-09T02:31:50;21.20;99.90
20750;DHT22;10535;50.664;4.564;2023-07-09T02:34:17;21.20;99.90
20750;DHT22;10535;50.664;4.564;2023-07-09T02:36:44;21.20;99.90
20750;DHT22;10535;50.664;4.564;2023-07-09T02:39:10;21.10;99.90
20750;DHT22;10535;50.664;4.564;2023-07-09T02:41:36;21.10;99.90
20750;DHT22;10535;50.664;4.564;2023-07-09T02:44:03;21.10;99.90
20750;DHT22;10535;50.664;4.564;2023-07-09T02:46:29;21.10;99.90
20750;DHT22;10535;50.664;4.564;2023-07-09T02:48:55;21.10;99.90
20750;DHT22;10535;50.664;4.564;2023-07-09T02:51:21;21.10;99.90
20750;DHT22;10535;50.664;4.564;2023-07-09T02:53:47;21.10;99.90
20750;DHT22;10535;50.664;4.564;2023-07-09T02:56:13;21.10;99.90
20750;DHT22;10535;50.664;4.564;2023-07-09T02:58:38;21.10;99.90
20750;DHT22;10535;50.664;4.564;2023-07-09T03:01:04;21.00;99.90
20750;DHT22;10535;50.664;4.564;2023-07-09T03:03:31;21.10;99.90
20750;DHT22;10535;50.664;4.564;2023-07-09T03:05:56;21.10;99.90
20750;DHT22;10535;50.664;4.564;2023-07-09T03:08:22;21.10;99.90
20750;DHT22;10535;50.664;4.564;2023-07-09T03:10:48;21.10;99.90
20750;DHT22;10535;50.664;4.564;2023-07-09T03:13:13;21.10;99.90
20750;DHT22;10535;50.664;4.564;2023-07-09T03:15:39;21.10;99.90
20750;DHT22;10535;50.664;4.564;2023-07-09T03:18:04;21.10;99.90
20750;DHT22;10535;50.664;4.564;2023-07-09T03:20:30;21.10;99.90
20750;DHT22;10535;50.664;4.564;2023-07-09T03:22:56;21.10;99.90
20750;DHT22;10535;50.664;4.564;2023-07-09T03:25:21;21.10;99.90
20750;DHT22;10535;50.664;4.564;2023-07-09T03:27:48;21.10;99.90
20750;DHT22;10535;50.664;4.564;2023-07-09T03:30:14;21.10;99.90
20750;DHT22;10535;50.664;4.564;2023-07-09T03:32:40;21.00;99.90
20750;DHT22;10535;50.664;4.564;2023-07-09T03:35:05;21.10;99.90
20750;DHT22;10535;50.664;4.564;2023-07-09T03:37:31;21.10;99.90
20750;DHT22;10535;50.664;4.564;2023-07-09T03:39:57;21.00;99.90
20750;DHT22;10535;50.664;4.564;2023-07-09T03:42:22;21.10;99.90
20750;DHT22;10535;50.664;4.564;2023-07-09T03:44:48;21.10;99.90
20750;DHT22;10535;50.664;4.564;2023-07-09T03:47:13;21.00;99.90
20750;DHT22;10535;50.664;4.564;2023-07-09T03:49:39;21.00;99.90
20750;DHT22;10535;50.664;4.564;2023-07-09T03:52:07;21.00;99.90
20750;DHT22;10535;50.664;4.564;2023-07-09T03:54:33;21.10;99.90
20750;DHT22;10535;50.664;4.564;2023-07-09T03:56:58;21.00;99.90
20750;DHT22;10535;50.664;4.564;2023-07-09T03:59:24;21.10;99.90
20750;DHT22;10535;50.664;4.564;2023-07-09T04:01:50;21.00;99.90
20750;DHT22;10535;50.664;4.564;2023-07-09T04:04:15;21.00;99.90
20750;DHT22;10535;50.664;4.564;2023-07-09T04:06:46;21.10;99.90
20750;DHT22;10535;50.664;4.564;2023-07-09T04:09:11;21.10;99.90
20750;DHT22;10535;50.664;4.564;2023-07-09T04:11:37;21.10;99.90
20750;DHT22;10535;50.664;4.564;2023-07-09T04:14:02;21.10;99.90
20750;DHT22;10535;50.664;4.564;2023-07-09T04:16:28;21.10;99.90
20750;DHT22;10535;50.664;4.564;2023-07-09T04:18:53;21.20;99.90
20750;DHT22;10535;50.664;4.564;2023-07-09T04:21:19;21.40;99.90
20750;DHT22;10535;50.664;4.564;2023-07-09T04:23:45;21.40;99.90
20750;DHT22;10535;50.664;4.564;2023-07-09T04:26:14;21.40;99.90
20750;DHT22;10535;50.664;4.564;2023-07-09T04:28:40;21.40;99.90
20750;DHT22;10535;50.664;4.564;2023-07-09T04:31:05;21.50;99.90
20750;DHT22;10535;50.664;4.564;2023-07-09T04:33:31;21.60;99.90
20750;DHT22;10535;50.664;4.564;2023-07-09T04:35:57;21.60;99.90
20750;DHT22;10535;50.664;4.564;2023-07-09T04:38:22;21.70;99.90
20750;DHT22;10535;50.664;4.564;2023-07-09T04:40:49;21.80;99.90
20750;DHT22;10535;50.664;4.564;2023-07-09T04:43:15;21.80;99.90
20750;DHT22;10535;50.664;4.564;2023-07-09T04:45:41;22.00;99.90
20750;DHT22;10535;50.664;4.564;2023-07-09T04:48:07;22.10;99.90
20750;DHT22;10535;50.664;4.564;2023-07-09T04:50:33;22.20;99.90
20750;DHT22;10535;50.664;4.564;2023-07-09T04:52:59;22.00;99.90
20750;DHT22;10535;50.664;4.564;2023-07-09T04:55:25;22.10;99.90
20750;DHT22;10535;50.664;4.564;2023-07-09T04:57:52;22.30;99.90
20750;DHT22;10535;50.664;4.564;2023-07-09T05:00:18;22.40;99.90
20750;DHT22;10535;50.664;4.564;2023-07-09T05:02:44;22.60;99.90
20750;DHT22;10535;50.664;4.564;2023-07-09T05:05:10;22.80;99.90
20750;DHT22;10535;50.664;4.564;2023-07-09T05:07:37;23.20;99.90
20750;DHT22;10535;50.664;4.564;2023-07-09T05:10:04;23.70;99.90
20750;DHT22;10535;50.664;4.564;2023-07-09T05:12:29;24.20;99.90
20750;DHT22;10535;50.664;4.564;2023-07-09T05:14:55;24.60;99.90
20750;DHT22;10535;50.664;4.564;2023-07-09T05:17:22;24.90;99.90
20750;DHT22;10535;50.664;4.564;2023-07-09T05:19:49;25.20;99.90
20750;DHT22;10535;50.664;4.564;2023-07-09T05:22:15;25.60;99.90
20750;DHT22;10535;50.664;4.564;2023-07-09T05:24:41;25.80;99.90
20750;DHT22;10535;50.664;4.564;2023-07-09T05:27:07;26.10;99.90
20750;DHT22;10535;50.664;4.564;2023-07-09T05:29:34;26.20;99.90
20750;DHT22;10535;50.664;4.564;2023-07-09T05:31:59;26.40;99.90
20750;DHT22;10535;50.664;4.564;2023-07-09T05:34:25;26.70;99.90
20750;DHT22;10535;50.664;4.564;2023-07-09T05:36:51;27.00;99.90
20750;DHT22;10535;50.664;4.564;2023-07-09T05:39:16;27.40;99.90
20750;DHT22;10535;50.664;4.564;2023-07-09T05:41:42;27.60;99.90
20750;DHT22;10535;50.664;4.564;2023-07-09T05:44:07;27.60;99.90
20750;DHT22;10535;50.664;4.564;2023-07-09T05:46:35;28.00;99.90
20750;DHT22;10535;50.664;4.564;2023-07-09T05:49:05;28.20;99.90
20750;DHT22;10535;50.664;4.564;2023-07-09T05:51:31;28.30;99.90
20750;DHT22;10535;50.664;4.564;2023-07-09T05:53:56;28.30;99.90
20750;DHT22;10535;50.664;4.564;2023-07-09T05:56:23;28.30;99.90
20750;DHT22;10535;50.664;4.564;2023-07-09T05:58:49;28.30;99.90
20750;DHT22;10535;50.664;4.564;2023-07-09T06:01:15;28.60;99.90
20750;DHT22;10535;50.664;4.564;2023-07-09T06:03:41;28.80;99.90
20750;DHT22;10535;50.664;4.564;2023-07-09T06:06:08;29.00;99.90
20750;DHT22;10535;50.664;4.564;2023-07-09T06:08:34;28.60;99.90
20750;DHT22;10535;50.664;4.564;2023-07-09T06:11:02;28.00;99.90
20750;DHT22;10535;50.664;4.564;2023-07-09T06:13:29;27.60;99.90
20750;DHT22;10535;50.664;4.564;2023-07-09T06:15:59;27.40;99.90
20750;DHT22;10535;50.664;4.564;2023-07-09T06:18:25;27.50;99.90
20750;DHT22;10535;50.664;4.564;2023-07-09T06:20:56;27.50;99.90
20750;DHT22;10535;50.664;4.564;2023-07-09T06:23:22;27.80;99.90
20750;DHT22;10535;50.664;4.564;2023-07-09T06:25:48;27.80;99.90
20750;DHT22;10535;50.664;4.564;2023-07-09T06:28:19;27.90;99.90
20750;DHT22;10535;50.664;4.564;2023-07-09T06:30:46;28.10;99.90
20750;DHT22;10535;50.664;4.564;2023-07-09T06:33:13;28.70;99.90
20750;DHT22;10535;50.664;4.564;2023-07-09T06:35:39;29.00;99.90
20750;DHT22;10535;50.664;4.564;2023-07-09T06:38:10;28.90;99.90
20750;DHT22;10535;50.664;4.564;2023-07-09T06:40:36;29.30;99.90
20750;DHT22;10535;50.664;4.564;2023-07-09T06:43:02;29.60;99.90
20750;DHT22;10535;50.664;4.564;2023-07-09T06:45:27;30.10;99.90
20750;DHT22;10535;50.664;4.564;2023-07-09T06:47:53;29.90;99.90
20750;DHT22;10535;50.664;4.564;2023-07-09T06:50:20;30.20;99.90
20750;DHT22;10535;50.664;4.564;2023-07-09T06:52:47;30.70;99.90
20750;DHT22;10535;50.664;4.564;2023-07-09T06:55:12;30.80;99.90
20750;DHT22;10535;50.664;4.564;2023-07-09T06:57:38;31.20;99.90
20750;DHT22;10535;50.664;4.564;2023-07-09T07:00:04;31.30;99.90
20750;DHT22;10535;50.664;4.564;2023-07-09T07:02:30;31.60;99.90
20750;DHT22;10535;50.664;4.564;2023-07-09T07:04:56;31.90;99.90
20750;DHT22;10535;50.664;4.564;2023-07-09T07:07:21;32.10;99.90
20750;DHT22;10535;50.664;4.564;2023-07-09T07:09:47;32.40;99.90
20750;DHT22;10535;50.664;4.564;2023-07-09T07:12:24;32.50;99.90
20750;DHT22;10535;50.664;4.564;2023-07-09T07:14:50;32.90;99.90
20750;DHT22;10535;50.664;4.564;2023-07-09T07:17:16;32.70;99.90
20750;DHT22;10535;50.664;4.564;2023-07-09T07:19:41;32.40;99.90
20750;DHT22;10535;50.664;4.564;2023-07-09T07:22:07;32.60;99.90
20750;DHT22;10535;50.664;4.564;2023-07-09T07:24:33;32.60;99.90
20750;DHT22;10535;50.664;4.564;2023-07-09T07:26:58;32.40;99.90
20750;DHT22;10535;50.664;4.564;2023-07-09T07:29:24;32.50;99.90
20750;DHT22;10535;50.664;4.564;2023-07-09T07:31:50;32.20;99.90
20750;DHT22;10535;50.664;4.564;2023-07-09T07:34:15;31.90;99.90
20750;DHT22;10535;50.664;4.564;2023-07-09T07:36:41;32.20;99.90
20750;DHT22;10535;50.664;4.564;2023-07-09T07:39:07;32.00;99.90
20750;DHT22;10535;50.664;4.564;2023-07-09T07:41:32;32.40;99.90
20750;DHT22;10535;50.664;4.564;2023-07-09T07:43:58;32.80;99.90
20750;DHT22;10535;50.664;4.564;2023-07-09T07:46:23;32.80;99.90
20750;DHT22;10535;50.664;4.564;2023-07-09T07:48:49;32.70;99.90
20750;DHT22;10535;50.664;4.564;2023-07-09T07:51:15;33.10;99.90
20750;DHT22;10535;50.664;4.564;2023-07-09T07:53:41;33.00;99.90
20750;DHT22;10535;50.664;4.564;2023-07-09T07:56:06;33.20;99.90
20750;DHT22;10535;50.664;4.564;2023-07-09T07:58:32;33.20;99.90
20750;DHT22;10535;50.664;4.564;2023-07-09T08:00:58;32.60;99.90
20750;DHT22;10535;50.664;4.564;2023-07-09T08:03:24;32.10;99.90
20750;DHT22;10535;50.664;4.564;2023-07-09T08:05:50;31.70;99.90
20750;DHT22;10535;50.664;4.564;2023-07-09T08:08:16;31.50;99.90
20750;DHT22;10535;50.664;4.564;2023-07-09T08:10:42;31.30;99.90
20750;DHT22;10535;50.664;4.564;2023-07-09T08:13:08;31.10;99.90
20750;DHT22;10535;50.664;4.564;2023-07-09T08:15:34;31.00;99.90
20750;DHT22;10535;50.664;4.564;2023-07-09T08:18:00;31.10;99.90
20750;DHT22;10535;50.664;4.564;2023-07-09T08:20:25;31.00;99.90
20750;DHT22;10535;50.664;4.564;2023-07-09T08:22:51;31.00;99.90
20750;DHT22;10535;50.664;4.564;2023-07-09T08:25:17;30.90;99.90
20750;DHT22;10535;50.664;4.564;2023-07-09T08:27:43;31.00;99.90
20750;DHT22;10535;50.664;4.564;2023-07-09T08:30:09;30.90;99.90
20750;DHT22;10535;50.664;4.564;2023-07-09T08:32:34;30.70;99.90
20750;DHT22;10535;50.664;4.564;2023-07-09T08:35:01;30.70;99.90
20750;DHT22;10535;50.664;4.564;2023-07-09T08:37:27;30.60;99.90
20750;DHT22;10535;50.664;4.564;2023-07-09T08:39:53;30.20;99.90
20750;DHT22;10535;50.664;4.564;2023-07-09T08:42:28;30.30;99.90
20750;DHT22;10535;50.664;4.564;2023-07-09T08:45:03;30.30;99.90
20750;DHT22;10535;50.664;4.564;2023-07-09T08:47:58;30.20;99.90
20750;DHT22;10535;50.664;4.564;2023-07-09T08:50:45;29.80;99.90
20750;DHT22;10535;50.664;4.564;2023-07-09T08:53:39;29.90;99.90
20750;DHT22;10535;50.664;4.564;2023-07-09T08:56:09;30.00;99.90
20750;DHT22;10535;50.664;4.564;2023-07-09T08:58:38;29.80;99.90
20750;DHT22;10535;50.664;4.564;2023-07-09T09:01:06;29.60;99.90
20750;DHT22;10535;50.664;4.564;2023-07-09T09:03:41;29.70;99.90
20750;DHT22;10535;50.664;4.564;2023-07-09T09:06:15;30.10;99.90
20750;DHT22;10535;50.664;4.564;2023-07-09T09:12:08;30.30;99.90
20750;DHT22;10535;50.664;4.564;2023-07-09T09:14:40;30.50;99.90
20750;DHT22;10535;50.664;4.564;2023-07-09T09:17:16;30.50;99.90
20750;DHT22;10535;50.664;4.564;2023-07-09T09:20:04;30.50;99.90
20750;DHT22;10535;50.664;4.564;2023-07-09T09:25:27;30.20;99.90
20750;DHT22;10535;50.664;4.564;2023-07-09T09:27:54;30.10;99.90
20750;DHT22;10535;50.664;4.564;2023-07-09T09:30:42;30.20;99.90
20750;DHT22;10535;50.664;4.564;2023-07-09T09:33:10;30.40;99.90
20750;DHT22;10535;50.664;4.564;2023-07-09T09:35:39;30.40;99.90
20750;DHT22;10535;50.664;4.564;2023-07-09T09:38:19;30.70;99.90
20750;DHT22;10535;50.664;4.564;2023-07-09T09:40:45;30.60;99.90
20750;DHT22;10535;50.664;4.564;2023-07-09T09:43:14;30.70;99.90
20750;DHT22;10535;50.664;4.564;2023-07-09T09:45:40;30.80;99.90
20750;DHT22;10535;50.664;4.564;2023-07-09T09:48:31;31.00;99.90
20750;DHT22;10535;50.664;4.564;2023-07-09T09:50:57;31.20;99.90
20750;DHT22;10535;50.664;4.564;2023-07-09T09:53:28;31.20;99.90
20750;DHT22;10535;50.664;4.564;2023-07-09T09:55:55;31.10;99.90
20750;DHT22;10535;50.664;4.564;2023-07-09T09:58:29;31.30;99.90
20750;DHT22;10535;50.664;4.564;2023-07-09T10:00:58;31.60;99.90
20750;DHT22;10535;50.664;4.564;2023-07-09T10:03:38;31.30;99.90
20750;DHT22;10535;50.664;4.564;2023-07-09T10:06:19;31.30;99.90
20750;DHT22;10535;50.664;4.564;2023-07-09T10:15:24;30.70;99.90
20750;DHT22;10535;50.664;4.564;2023-07-09T10:23:31;31.10;99.90
20750;DHT22;10535;50.664;4.564;2023-07-09T10:32:01;31.40;99.90
20750;DHT22;10535;50.664;4.564;2023-07-09T10:35:05;31.20;99.90
20750;DHT22;10535;50.664;4.564;2023-07-09T10:40:34;31.20;99.90
20750;DHT22;10535;50.664;4.564;2023-07-09T10:46:31;31.30;99.90
20750;DHT22;10535;50.664;4.564;2023-07-09T10:49:17;30.90;99.90
20750;DHT22;10535;50.664;4.564;2023-07-09T10:51:44;30.40;99.90
20750;DHT22;10535;50.664;4.564;2023-07-09T10:54:24;30.20;99.90
20750;DHT22;10535;50.664;4.564;2023-07-09T10:57:03;30.20;99.90
20750;DHT22;10535;50.664;4.564;2023-07-09T10:59:52;29.80;99.90
20750;DHT22;10535;50.664;4.564;2023-07-09T11:02:37;29.90;99.90
20750;DHT22;10535;50.664;4.564;2023-07-09T11:05:27;29.60;99.90
20750;DHT22;10535;50.664;4.564;2023-07-09T11:08:54;29.20;99.90
20750;DHT22;10535;50.664;4.564;2023-07-09T11:12:00;29.00;99.90
20750;DHT22;10535;50.664;4.564;2023-07-09T11:15:10;29.00;99.90
20750;DHT22;10535;50.664;4.564;2023-07-09T11:18:51;28.60;99.90
20750;DHT22;10535;50.664;4.564;2023-07-09T11:22:20;28.00;99.90
20750;DHT22;10535;50.664;4.564;2023-07-09T11:25:11;27.90;99.90
20750;DHT22;10535;50.664;4.564;2023-07-09T11:28:46;27.60;99.90
20750;DHT22;10535;50.664;4.564;2023-07-09T11:31:38;27.40;99.90
20750;DHT22;10535;50.664;4.564;2023-07-09T11:35:09;27.20;99.90
20750;DHT22;10535;50.664;4.564;2023-07-09T11:38:06;27.10;99.90
20750;DHT22;10535;50.664;4.564;2023-07-09T11:44:51;26.80;99.90
20750;DHT22;10535;50.664;4.564;2023-07-09T11:48:27;26.60;99.90
20750;DHT22;10535;50.664;4.564;2023-07-09T11:51:49;26.30;99.90
20750;DHT22;10535;50.664;4.564;2023-07-09T11:57:26;26.00;99.90
20750;DHT22;10535;50.664;4.564;2023-07-09T12:00:22;25.90;99.90
20750;DHT22;10535;50.664;4.564;2023-07-09T12:03:51;25.90;99.90
20750;DHT22;10535;50.664;4.564;2023-07-09T12:06:36;26.00;99.90
20750;DHT22;10535;50.664;4.564;2023-07-09T12:09:21;26.10;99.90
20750;DHT22;10535;50.664;4.564;2023-07-09T12:12:15;25.80;99.90
20750;DHT22;10535;50.664;4.564;2023-07-09T12:15:49;25.80;99.90
20750;DHT22;10535;50.664;4.564;2023-07-09T12:18:33;25.50;99.90
20750;DHT22;10535;50.664;4.564;2023-07-09T12:20:59;25.20;99.90
20750;DHT22;10535;50.664;4.564;2023-07-09T12:23:31;24.70;99.90
20750;DHT22;10535;50.664;4.564;2023-07-09T12:26:00;24.60;99.90
20750;DHT22;10535;50.664;4.564;2023-07-09T12:28:27;24.40;99.90
20750;DHT22;10535;50.664;4.564;2023-07-09T12:30:54;23.80;99.90
20750;DHT22;10535;50.664;4.564;2023-07-09T12:33:22;23.20;99.90
20750;DHT22;10535;50.664;4.564;2023-07-09T12:35:57;22.90;99.90
20750;DHT22;10535;50.664;4.564;2023-07-09T12:38:25;22.80;99.90
20750;DHT22;10535;50.664;4.564;2023-07-09T12:40:52;22.60;99.90
20750;DHT22;10535;50.664;4.564;2023-07-09T12:43:26;22.50;99.90
20750;DHT22;10535;50.664;4.564;2023-07-09T12:45:57;22.60;99.90
20750;DHT22;10535;50.664;4.564;2023-07-09T12:48:26;22.40;99.90
20750;DHT22;10535;50.664;4.564;2023-07-09T12:50:57;22.30;99.90
20750;DHT22;10535;50.664;4.564;2023-07-09T12:53:26;22.40;99.90
20750;DHT22;10535;50.664;4.564;2023-07-09T12:55:56;22.40;99.90
20750;DHT22;10535;50.664;4.564;2023-07-09T12:58:26;22.20;99.90
20750;DHT22;10535;50.664;4.564;2023-07-09T13:00:54;22.20;99.90
20750;DHT22;10535;50.664;4.564;2023-07-09T13:03:28;22.20;99.90
20750;DHT22;10535;50.664;4.564;2023-07-09T13:06:04;22.40;99.90
20750;DHT22;10535;50.664;4.564;2023-07-09T13:08:39;22.80;99.90
20750;DHT22;10535;50.664;4.564;2023-07-09T13:11:17;23.20;99.90
20750;DHT22;10535;50.664;4.564;2023-07-09T13:14:03;23.60;99.90
20750;DHT22;10535;50.664;4.564;2023-07-09T13:16:30;23.90;99.90
20750;DHT22;10535;50.664;4.564;2023-07-09T13:18:56;24.30;99.90
20750;DHT22;10535;50.664;4.564;2023-07-09T13:21:22;24.60;99.90
20750;DHT22;10535;50.664;4.564;2023-07-09T13:23:49;24.80;99.90
20750;DHT22;10535;50.664;4.564;2023-07-09T13:26:16;25.00;99.90
20750;DHT22;10535;50.664;4.564;2023-07-09T13:28:43;25.40;99.90
20750;DHT22;10535;50.664;4.564;2023-07-09T13:31:13;25.50;99.90
20750;DHT22;10535;50.664;4.564;2023-07-09T13:33:43;25.70;99.90
20750;DHT22;10535;50.664;4.564;2023-07-09T13:36:10;26.10;99.90
20750;DHT22;10535;50.664;4.564;2023-07-09T13:38:36;26.70;99.90
20750;DHT22;10535;50.664;4.564;2023-07-09T13:41:15;26.90;99.90
20750;DHT22;10535;50.664;4.564;2023-07-09T13:43:44;26.90;99.90
20750;DHT22;10535;50.664;4.564;2023-07-09T13:46:11;27.10;99.90
20750;DHT22;10535;50.664;4.564;2023-07-09T13:48:38;27.50;99.90
20750;DHT22;10535;50.664;4.564;2023-07-09T13:51:22;28.00;99.90
20750;DHT22;10535;50.664;4.564;2023-07-09T13:53:54;28.30;99.90
20750;DHT22;10535;50.664;4.564;2023-07-09T13:56:20;28.50;99.90
20750;DHT22;10535;50.664;4.564;2023-07-09T13:58:45;28.70;99.90
20750;DHT22;10535;50.664;4.564;2023-07-09T14:01:18;28.90;99.90
20750;DHT22;10535;50.664;4.564;2023-07-09T14:03:45;28.70;99.90
20750;DHT22;10535;50.664;4.564;2023-07-09T14:06:16;28.60;99.90
20750;DHT22;10535;50.664;4.564;2023-07-09T14:08:42;28.80;99.90
20750;DHT22;10535;50.664;4.564;2023-07-09T14:11:13;28.80;99.90
20750;DHT22;10535;50.664;4.564;2023-07-09T14:13:40;28.80;99.90
20750;DHT22;10535;50.664;4.564;2023-07-09T14:16:09;28.90;99.90
20750;DHT22;10535;50.664;4.564;2023-07-09T14:18:35;28.80;99.90
20750;DHT22;10535;50.664;4.564;2023-07-09T14:21:05;29.10;99.90
20750;DHT22;10535;50.664;4.564;2023-07-09T14:23:31;29.60;99.90
20750;DHT22;10535;50.664;4.564;2023-07-09T14:25:57;29.00;99.90
20750;DHT22;10535;50.664;4.564;2023-07-09T14:28:22;28.60;99.90
20750;DHT22;10535;50.664;4.564;2023-07-09T14:30:49;28.60;99.90
20750;DHT22;10535;50.664;4.564;2023-07-09T14:33:20;28.40;99.90
20750;DHT22;10535;50.664;4.564;2023-07-09T14:35:47;28.40;99.90
20750;DHT22;10535;50.664;4.564;2023-07-09T14:38:18;28.90;99.90
20750;DHT22;10535;50.664;4.564;2023-07-09T14:40:46;29.30;99.90
20750;DHT22;10535;50.664;4.564;2023-07-09T14:43:16;29.30;99.90
20750;DHT22;10535;50.664;4.564;2023-07-09T14:45:50;28.80;99.90
20750;DHT22;10535;50.664;4.564;2023-07-09T14:48:18;28.30;99.90
20750;DHT22;10535;50.664;4.564;2023-07-09T14:50:45;28.30;99.90
20750;DHT22;10535;50.664;4.564;2023-07-09T14:53:20;28.40;99.90
20750;DHT22;10535;50.664;4.564;2023-07-09T14:55:46;28.30;99.90
20750;DHT22;10535;50.664;4.564;2023-07-09T14:58:18;28.00;99.90
20750;DHT22;10535;50.664;4.564;2023-07-09T15:00:45;27.80;99.90
20750;DHT22;10535;50.664;4.564;2023-07-09T15:03:21;27.90;99.90
20750;DHT22;10535;50.664;4.564;2023-07-09T15:06:03;28.00;99.90
20750;DHT22;10535;50.664;4.564;2023-07-09T15:08:30;27.60;99.90
20750;DHT22;10535;50.664;4.564;2023-07-09T15:10:56;27.60;99.90
20750;DHT22;10535;50.664;4.564;2023-07-09T15:13:34;27.70;99.90
20750;DHT22;10535;50.664;4.564;2023-07-09T15:16:01;27.90;99.90
20750;DHT22;10535;50.664;4.564;2023-07-09T15:18:27;27.90;99.90
20750;DHT22;10535;50.664;4.564;2023-07-09T15:20:56;27.90;99.90
20750;DHT22;10535;50.664;4.564;2023-07-09T15:23:23;28.00;99.90
20750;DHT22;10535;50.664;4.564;2023-07-09T15:25:54;28.00;99.90
20750;DHT22;10535;50.664;4.564;2023-07-09T15:28:40;28.20;99.90
20750;DHT22;10535;50.664;4.564;2023-07-09T15:31:17;28.00;99.90
20750;DHT22;10535;50.664;4.564;2023-07-09T15:33:45;28.50;99.90
20750;DHT22;10535;50.664;4.564;2023-07-09T15:36:11;29.10;99.90
20750;DHT22;10535;50.664;4.564;2023-07-09T15:38:37;29.10;99.90
20750;DHT22;10535;50.664;4.564;2023-07-09T15:41:17;29.40;99.90
20750;DHT22;10535;50.664;4.564;2023-07-09T15:43:48;29.30;99.90
20750;DHT22;10535;50.664;4.564;2023-07-09T15:46:20;29.50;99.90
20750;DHT22;10535;50.664;4.564;2023-07-09T15:48:57;29.40;99.90
20750;DHT22;10535;50.664;4.564;2023-07-09T15:51:29;29.10;99.90
20750;DHT22;10535;50.664;4.564;2023-07-09T15:53:54;29.20;99.90
20750;DHT22;10535;50.664;4.564;2023-07-09T15:56:50;29.20;99.90
20750;DHT22;10535;50.664;4.564;2023-07-09T15:59:50;29.10;99.90
20750;DHT22;10535;50.664;4.564;2023-07-09T16:02:16;28.80;99.90
20750;DHT22;10535;50.664;4.564;2023-07-09T16:04:43;28.60;99.90
20750;DHT22;10535;50.664;4.564;2023-07-09T16:07:48;28.70;99.90
20750;DHT22;10535;50.664;4.564;2023-07-09T16:10:37;29.00;99.90
20750;DHT22;10535;50.664;4.564;2023-07-09T16:13:37;28.90;99.90
20750;DHT22;10535;50.664;4.564;2023-07-09T16:16:13;28.50;99.90
20750;DHT22;10535;50.664;4.564;2023-07-09T16:18:47;28.40;99.90
20750;DHT22;10535;50.664;4.564;2023-07-09T16:21:28;28.50;99.90
20750;DHT22;10535;50.664;4.564;2023-07-09T16:24:16;28.40;99.90
20750;DHT22;10535;50.664;4.564;2023-07-09T16:26:42;28.30;99.90
20750;DHT22;10535;50.664;4.564;2023-07-09T16:29:32;28.20;99.90
20750;DHT22;10535;50.664;4.564;2023-07-09T16:32:00;28.00;99.90
20750;DHT22;10535;50.664;4.564;2023-07-09T16:34:30;27.80;99.90
20750;DHT22;10535;50.664;4.564;2023-07-09T16:37:19;27.70;99.90
20750;DHT22;10535;50.664;4.564;2023-07-09T16:40:14;27.20;99.90